sensor_id;sensor_type;location;lat;lon;timestamp;temperature;humidity
5792;DHT22;2922;53.482;10.006;2023-06-14T00:01:35;16.60;99.90
5792;DHT22;2922;53.482;10.006;2023-06-14T00:04:01;16.70;99.90
5792;DHT22;2922;53.482;10.006;2023-06-14T00:06:28;16.60;99.90
5792;DHT22;2922;53.482;10.006;2023-06-14T00:08:54;16.60;99.90
5792;DHT22;2922;53.482;10.006;2023-06-14T00:11:20;16.70;99.90
5792;DHT22;2922;53.482;10.006;2023-06-14T00:13:46;16.60;99.90
5792;DHT22;2922;53.482;10.006;2023-06-14T00:16:12;16.50;99.90
5792;DHT22;2922;53.482;10.006;2023-06-14T00:18:38;16.50;99.90
5792;DHT22;2922;53.482;10.006;2023-06-14T00:21:04;16.40;99.90
5792;DHT22;2922;53.482;10.006;2023-06-14T00:23:30;16.40;99.90
5792;DHT22;2922;53.482;10.006;2023-06-14T00:25:55;16.50;99.90
5792;DHT22;2922;53.482;10.006;2023-06-14T00:28:21;16.40;99.90
5792;DHT22;2922;53.482;10.006;2023-06-14T00:30:47;16.40;99.90
5792;DHT22;2922;53.482;10.006;2023-06-14T00:33:12;16.30;99.90
5792;DHT22;2922;53.482;10.006;2023-06-14T00:35:38;16.30;99.90
5792;DHT22;2922;53.482;10.006;2023-06-14T00:38:04;16.30;99.90
5792;DHT22;2922;53.482;10.006;2023-06-14T00:40:29;16.20;99.90
5792;DHT22;2922;53.482;10.006;2023-06-14T00:42:55;16.20;99.90
5792;DHT22;2922;53.482;10.006;2023-06-14T00:45:21;16.20;99.90
5792;DHT22;2922;53.482;10.006;2023-06-14T00:47:48;16.10;99.90
5792;DHT22;2922;53.482;10.006;2023-06-14T00:50:16;16.10;99.90
5792;DHT22;2922;53.482;10.006;2023-06-14T00:52:42;16.10;99.90
5792;DHT22;2922;53.482;10.006;2023-06-14T00:55:08;16.10;99.90
5792;DHT22;2922;53.482;10.006;2023-06-14T00:57:34;16.00;99.90
5792;DHT22;2922;53.482;10.006;2023-06-14T01:00:03;15.90;99.90
5792;DHT22;2922;53.482;10.006;2023-06-14T01:02:30;15.90;99.90
5792;DHT22;2922;53.482;10.006;2023-06-14T01:04:55;15.90;99.90
5792;DHT22;2922;53.482;10.006;2023-06-14T01:10:45;15.80;99.90
5792;DHT22;2922;53.482;10.006;2023-06-14T01:13:27;15.80;99.90
5792;DHT22;2922;53.482;10.006;2023-06-14T01:15:55;15.70;99.90
5792;DHT22;2922;53.482;10.006;2023-06-14T01:18:21;15.70;99.90
5792;DHT22;2922;53.482;10.006;2023-06-14T01:20:49;15.80;99.90
5792;DHT22;2922;53.482;10.006;2023-06-14T01:23:17;15.70;99.90
5792;DHT22;2922;53.482;10.006;2023-06-14T01:25:43;15.70;99.90
5792;DHT22;2922;53.482;10.006;2023-06-14T01:28:10;15.60;99.90
5792;DHT22;2922;53.482;10.006;2023-06-14T01:30:38;15.60;99.90
5792;DHT22;2922;53.482;10.006;2023-06-14T01:33:04;15.60;99.90
5792;DHT22;2922;53.482;10.006;2023-06-14T01:35:31;15.60;99.90
5792;DHT22;2922;53.482;10.006;2023-06-14T01:37:57;15.60;99.90
5792;DHT22;2922;53.482;10.006;2023-06-14T01:40:22;15.60;99.90
5792;DHT22;2922;53.482;10.006;2023-06-14T01:42:50;15.50;99.90
5792;DHT22;2922;53.482;10.006;2023-06-14T01:45:16;15.50;99.90
5792;DHT22;2922;53.482;10.006;2023-06-14T01:47:44;15.50;99.90
5792;DHT22;2922;53.482;10.006;2023-06-14T01:50:10;15.40;99.90
5792;DHT22;2922;53.482;10.006;2023-06-14T01:52:37;15.50;99.90
5792;DHT22;2922;53.482;10.006;2023-06-14T01:55:04;15.40;99.90
5792;DHT22;2922;53.482;10.006;2023-06-14T01:57:30;15.40;99.90
5792;DHT22;2922;53.482;10.006;2023-06-14T01:59:56;15.40;99.90
5792;DHT22;2922;53.482;10.006;2023-06-14T02:02:21;15.40;99.90
5792;DHT22;2922;53.482;10.006;2023-06-14T02:04:47;15.40;99.90
5792;DHT22;2922;53.482;10.006;2023-06-14T02:07:13;15.30;99.90
5792;DHT22;2922;53.482;10.006;2023-06-14T02:09:42;15.30;99.90
5792;DHT22;2922;53.482;10.006;2023-06-14T02:12:08;15.30;99.90
5792;DHT22;2922;53.482;10.006;2023-06-14T02:14:34;15.30;99.90
5792;DHT22;2922;53.482;10.006;2023-06-14T02:17:00;15.40;99.90
5792;DHT22;2922;53.482;10.006;2023-06-14T02:19:26;15.30;99.90
5792;DHT22;2922;53.482;10.006;2023-06-14T02:21:52;15.30;99.90
5792;DHT22;2922;53.482;10.006;2023-06-14T02:24:17;15.20;99.90
5792;DHT22;2922;53.482;10.006;2023-06-14T02:26:43;15.20;99.90
5792;DHT22;2922;53.482;10.006;2023-06-14T02:29:09;15.20;99.90
5792;DHT22;2922;53.482;10.006;2023-06-14T02:31:37;15.10;99.90
5792;DHT22;2922;53.482;10.006;2023-06-14T02:34:03;15.10;99.90
5792;DHT22;2922;53.482;10.006;2023-06-14T02:36:28;15.10;99.90
5792;DHT22;2922;53.482;10.006;2023-06-14T02:38:57;15.00;99.90
5792;DHT22;2922;53.482;10.006;2023-06-14T02:41:24;15.00;99.90
5792;DHT22;2922;53.482;10.006;2023-06-14T02:43:49;14.90;99.90
5792;DHT22;2922;53.482;10.006;2023-06-14T02:46:15;15.00;99.90
5792;DHT22;2922;53.482;10.006;2023-06-14T02:48:41;14.90;99.90
5792;DHT22;2922;53.482;10.006;2023-06-14T02:51:06;14.90;99.90
5792;DHT22;2922;53.482;10.006;2023-06-14T02:53:33;15.00;99.90
5792;DHT22;2922;53.482;10.006;2023-06-14T02:55:59;14.80;99.90
5792;DHT22;2922;53.482;10.006;2023-06-14T02:58:26;14.80;99.90
5792;DHT22;2922;53.482;10.006;2023-06-14T03:00:51;14.80;99.90
5792;DHT22;2922;53.482;10.006;2023-06-14T03:03:18;14.70;99.90
5792;DHT22;2922;53.482;10.006;2023-06-14T03:05:46;14.70;99.90
5792;DHT22;2922;53.482;10.006;2023-06-14T03:08:13;14.70;99.90
5792;DHT22;2922;53.482;10.006;2023-06-14T03:10:48;14.70;99.90
5792;DHT22;2922;53.482;10.006;2023-06-14T03:13:15;14.70;99.90
5792;DHT22;2922;53.482;10.006;2023-06-14T03:15:47;14.70;99.90
5792;DHT22;2922;53.482;10.006;2023-06-14T03:18:18;14.70;99.90
5792;DHT22;2922;53.482;10.006;2023-06-14T03:20:44;14.60;99.90
5792;DHT22;2922;53.482;10.006;2023-06-14T03:23:11;14.60;99.90
5792;DHT22;2922;53.482;10.006;2023-06-14T03:25:37;14.60;99.90
5792;DHT22;2922;53.482;10.006;2023-06-14T03:28:07;14.70;99.90
5792;DHT22;2922;53.482;10.006;2023-06-14T03:30:32;14.70;99.90
5792;DHT22;2922;53.482;10.006;2023-06-14T03:32:58;14.70;99.90
5792;DHT22;2922;53.482;10.006;2023-06-14T03:35:26;14.60;99.90
5792;DHT22;2922;53.482;10.006;2023-06-14T03:37:52;14.60;99.90
5792;DHT22;2922;53.482;10.006;2023-06-14T03:40:19;14.60;99.90
5792;DHT22;2922;53.482;10.006;2023-06-14T03:42:51;14.60;99.90
5792;DHT22;2922;53.482;10.006;2023-06-14T03:45:16;14.70;99.90
5792;DHT22;2922;53.482;10.006;2023-06-14T03:47:42;14.60;99.90
5792;DHT22;2922;53.482;10.006;2023-06-14T03:50:08;14.60;99.90
5792;DHT22;2922;53.482;10.006;2023-06-14T03:52:33;14.70;99.90
5792;DHT22;2922;53.482;10.006;2023-06-14T03:54:59;14.70;99.90
5792;DHT22;2922;53.482;10.006;2023-06-14T03:57:25;14.70;99.90
5792;DHT22;2922;53.482;10.006;2023-06-14T03:59:51;14.80;99.90
5792;DHT22;2922;53.482;10.006;2023-06-14T04:02:17;14.80;99.90
5792;DHT22;2922;53.482;10.006;2023-06-14T04:04:43;14.70;99.90
5792;DHT22;2922;53.482;10.006;2023-06-14T04:07:16;14.70;99.90
5792;DHT22;2922;53.482;10.006;2023-06-14T04:09:46;14.80;99.90
5792;DHT22;2922;53.482;10.006;2023-06-14T04:12:11;14.70;99.90
5792;DHT22;2922;53.482;10.006;2023-06-14T04:14:37;14.70;99.90
5792;DHT22;2922;53.482;10.006;2023-06-14T04:17:03;14.80;99.90
5792;DHT22;2922;53.482;10.006;2023-06-14T04:19:29;14.80;99.90
5792;DHT22;2922;53.482;10.006;2023-06-14T04:21:55;14.70;99.90
5792;DHT22;2922;53.482;10.006;2023-06-14T04:24:20;14.70;99.90
5792;DHT22;2922;53.482;10.006;2023-06-14T04:26:46;14.80;99.90
5792;DHT22;2922;53.482;10.006;2023-06-14T04:29:14;14.70;99.90
5792;DHT22;2922;53.482;10.006;2023-06-14T04:31:42;14.80;99.90
5792;DHT22;2922;53.482;10.006;2023-06-14T04:34:08;14.90;99.90
5792;DHT22;2922;53.482;10.006;2023-06-14T04:36:34;15.00;99.90
5792;DHT22;2922;53.482;10.006;2023-06-14T04:39:02;14.90;99.90
5792;DHT22;2922;53.482;10.006;2023-06-14T04:41:30;14.90;99.90
5792;DHT22;2922;53.482;10.006;2023-06-14T04:43:56;15.00;99.90
5792;DHT22;2922;53.482;10.006;2023-06-14T04:46:27;15.00;99.90
5792;DHT22;2922;53.482;10.006;2023-06-14T04:48:54;15.00;99.90
5792;DHT22;2922;53.482;10.006;2023-06-14T04:51:20;15.10;99.90
5792;DHT22;2922;53.482;10.006;2023-06-14T04:53:47;15.10;99.90
5792;DHT22;2922;53.482;10.006;2023-06-14T04:56:15;15.10;99.90
5792;DHT22;2922;53.482;10.006;2023-06-14T04:58:40;15.20;99.90
5792;DHT22;2922;53.482;10.006;2023-06-14T05:01:06;15.30;99.90
5792;DHT22;2922;53.482;10.006;2023-06-14T05:03:34;15.30;99.90
5792;DHT22;2922;53.482;10.006;2023-06-14T05:06:00;15.30;99.90
5792;DHT22;2922;53.482;10.006;2023-06-14T05:08:26;15.50;99.90
5792;DHT22;2922;53.482;10.006;2023-06-14T05:10:52;15.40;99.90
5792;DHT22;2922;53.482;10.006;2023-06-14T05:13:18;15.50;99.90
5792;DHT22;2922;53.482;10.006;2023-06-14T05:15:44;15.50;99.90
5792;DHT22;2922;53.482;10.006;2023-06-14T05:18:09;15.60;99.90
5792;DHT22;2922;53.482;10.006;2023-06-14T05:20:35;15.70;99.90
5792;DHT22;2922;53.482;10.006;2023-06-14T05:23:02;15.70;99.90
5792;DHT22;2922;53.482;10.006;2023-06-14T05:25:28;15.80;99.90
5792;DHT22;2922;53.482;10.006;2023-06-14T05:27:53;15.80;99.90
5792;DHT22;2922;53.482;10.006;2023-06-14T05:30:19;16.00;99.90
5792;DHT22;2922;53.482;10.006;2023-06-14T05:32:45;16.00;99.90
5792;DHT22;2922;53.482;10.006;2023-06-14T05:35:10;16.10;99.90
5792;DHT22;2922;53.482;10.006;2023-06-14T05:37:36;16.20;99.90
5792;DHT22;2922;53.482;10.006;2023-06-14T05:40:03;16.20;99.90
5792;DHT22;2922;53.482;10.006;2023-06-14T05:42:32;16.30;99.90
5792;DHT22;2922;53.482;10.006;2023-06-14T05:44:58;16.40;99.90
5792;DHT22;2922;53.482;10.006;2023-06-14T05:47:24;16.50;99.90
5792;DHT22;2922;53.482;10.006;2023-06-14T05:49:49;16.50;99.90
5792;DHT22;2922;53.482;10.006;2023-06-14T05:52:15;16.60;99.90
5792;DHT22;2922;53.482;10.006;2023-06-14T05:54:40;16.70;99.90
5792;DHT22;2922;53.482;10.006;2023-06-14T05:57:06;16.90;99.90
5792;DHT22;2922;53.482;10.006;2023-06-14T05:59:32;17.00;99.90
5792;DHT22;2922;53.482;10.006;2023-06-14T06:01:58;17.10;99.90
5792;DHT22;2922;53.482;10.006;2023-06-14T06:04:24;17.20;99.90
5792;DHT22;2922;53.482;10.006;2023-06-14T06:06:49;17.40;99.90
5792;DHT22;2922;53.482;10.006;2023-06-14T06:09:15;17.50;99.90
5792;DHT22;2922;53.482;10.006;2023-06-14T06:11:41;17.50;99.90
5792;DHT22;2922;53.482;10.006;2023-06-14T06:14:06;17.70;99.90
5792;DHT22;2922;53.482;10.006;2023-06-14T06:16:32;17.90;99.90
5792;DHT22;2922;53.482;10.006;2023-06-14T06:18:58;18.00;99.90
5792;DHT22;2922;53.482;10.006;2023-06-14T06:21:24;18.00;99.90
5792;DHT22;2922;53.482;10.006;2023-06-14T06:23:49;18.20;99.90
5792;DHT22;2922;53.482;10.006;2023-06-14T06:26:15;18.20;99.90
5792;DHT22;2922;53.482;10.006;2023-06-14T06:28:40;18.40;99.90
5792;DHT22;2922;53.482;10.006;2023-06-14T06:31:06;18.50;99.90
5792;DHT22;2922;53.482;10.006;2023-06-14T06:33:32;18.50;99.90
5792;DHT22;2922;53.482;10.006;2023-06-14T06:35:57;18.60;99.90
5792;DHT22;2922;53.482;10.006;2023-06-14T06:38:23;18.80;99.90
5792;DHT22;2922;53.482;10.006;2023-06-14T06:40:48;18.80;99.90
5792;DHT22;2922;53.482;10.006;2023-06-14T06:43:14;18.90;99.90
5792;DHT22;2922;53.482;10.006;2023-06-14T06:45:42;19.00;99.90
5792;DHT22;2922;53.482;10.006;2023-06-14T06:48:07;19.20;99.90
5792;DHT22;2922;53.482;10.006;2023-06-14T06:50:35;19.20;99.90
5792;DHT22;2922;53.482;10.006;2023-06-14T06:53:01;19.30;99.90
5792;DHT22;2922;53.482;10.006;2023-06-14T06:55:26;19.30;99.90
5792;DHT22;2922;53.482;10.006;2023-06-14T06:57:52;19.40;99.90
5792;DHT22;2922;53.482;10.006;2023-06-14T07:00:19;19.60;99.90
5792;DHT22;2922;53.482;10.006;2023-06-14T07:02:45;19.70;99.90
5792;DHT22;2922;53.482;10.006;2023-06-14T07:05:11;19.90;99.90
5792;DHT22;2922;53.482;10.006;2023-06-14T07:07:37;20.10;99.90
5792;DHT22;2922;53.482;10.006;2023-06-14T07:10:03;20.20;99.90
5792;DHT22;2922;53.482;10.006;2023-06-14T07:12:30;20.30;99.90
5792;DHT22;2922;53.482;10.006;2023-06-14T07:14:59;20.30;99.90
5792;DHT22;2922;53.482;10.006;2023-06-14T07:17:25;20.50;99.90
5792;DHT22;2922;53.482;10.006;2023-06-14T07:19:51;20.70;99.90
5792;DHT22;2922;53.482;10.006;2023-06-14T07:22:17;20.70;99.90
5792;DHT22;2922;53.482;10.006;2023-06-14T07:24:43;20.90;99.90
5792;DHT22;2922;53.482;10.006;2023-06-14T07:27:09;21.00;99.90
5792;DHT22;2922;53.482;10.006;2023-06-14T07:29:35;21.10;99.90
5792;DHT22;2922;53.482;10.006;2023-06-14T07:32:00;21.40;99.90
5792;DHT22;2922;53.482;10.006;2023-06-14T07:34:26;21.50;99.90
5792;DHT22;2922;53.482;10.006;2023-06-14T07:36:52;21.60;99.90
5792;DHT22;2922;53.482;10.006;2023-06-14T07:39:19;21.80;99.90
5792;DHT22;2922;53.482;10.006;2023-06-14T07:41:45;21.90;99.90
5792;DHT22;2922;53.482;10.006;2023-06-14T07:44:10;22.10;99.80
5792;DHT22;2922;53.482;10.006;2023-06-14T07:46:37;22.30;95.60
5792;DHT22;2922;53.482;10.006;2023-06-14T07:49:03;22.20;94.50
5792;DHT22;2922;53.482;10.006;2023-06-14T07:51:29;22.30;96.80
5792;DHT22;2922;53.482;10.006;2023-06-14T07:53:54;22.50;93.60
5792;DHT22;2922;53.482;10.006;2023-06-14T07:56:20;22.50;90.90
5792;DHT22;2922;53.482;10.006;2023-06-14T07:58:46;22.60;86.20
5792;DHT22;2922;53.482;10.006;2023-06-14T08:01:12;22.80;90.90
5792;DHT22;2922;53.482;10.006;2023-06-14T08:03:38;22.90;87.10
5792;DHT22;2922;53.482;10.006;2023-06-14T08:06:03;22.90;86.50
5792;DHT22;2922;53.482;10.006;2023-06-14T08:08:29;23.00;83.80
5792;DHT22;2922;53.482;10.006;2023-06-14T08:10:56;23.10;84.80
5792;DHT22;2922;53.482;10.006;2023-06-14T08:13:21;23.40;86.10
5792;DHT22;2922;53.482;10.006;2023-06-14T08:15:47;23.60;83.80
5792;DHT22;2922;53.482;10.006;2023-06-14T08:18:12;23.70;82.20
5792;DHT22;2922;53.482;10.006;2023-06-14T08:20:38;23.90;79.60
5792;DHT22;2922;53.482;10.006;2023-06-14T08:23:05;24.00;76.50
5792;DHT22;2922;53.482;10.006;2023-06-14T08:25:30;24.10;76.40
5792;DHT22;2922;53.482;10.006;2023-06-14T08:27:56;24.20;73.30
5792;DHT22;2922;53.482;10.006;2023-06-14T08:30:22;24.30;72.60
5792;DHT22;2922;53.482;10.006;2023-06-14T08:32:48;24.40;69.70
5792;DHT22;2922;53.482;10.006;2023-06-14T08:35:13;24.60;68.80
5792;DHT22;2922;53.482;10.006;2023-06-14T08:37:40;24.50;72.20
5792;DHT22;2922;53.482;10.006;2023-06-14T08:40:17;24.60;68.40
5792;DHT22;2922;53.482;10.006;2023-06-14T08:42:45;24.90;68.70
5792;DHT22;2922;53.482;10.006;2023-06-14T08:45:12;25.10;70.80
5792;DHT22;2922;53.482;10.006;2023-06-14T08:47:38;25.30;66.50
5792;DHT22;2922;53.482;10.006;2023-06-14T08:50:04;25.30;63.00
5792;DHT22;2922;53.482;10.006;2023-06-14T08:52:35;25.30;60.20
5792;DHT22;2922;53.482;10.006;2023-06-14T08:55:06;25.20;64.50
5792;DHT22;2922;53.482;10.006;2023-06-14T08:57:36;25.50;62.70
5792;DHT22;2922;53.482;10.006;2023-06-14T09:00:03;25.60;61.30
5792;DHT22;2922;53.482;10.006;2023-06-14T09:02:39;25.50;58.10
5792;DHT22;2922;53.482;10.006;2023-06-14T09:05:09;25.50;59.00
5792;DHT22;2922;53.482;10.006;2023-06-14T09:07:34;25.80;60.30
5792;DHT22;2922;53.482;10.006;2023-06-14T09:10:21;26.10;60.20
5792;DHT22;2922;53.482;10.006;2023-06-14T09:12:47;26.30;59.80
5792;DHT22;2922;53.482;10.006;2023-06-14T09:15:13;26.40;58.40
5792;DHT22;2922;53.482;10.006;2023-06-14T09:17:39;26.60;57.50
5792;DHT22;2922;53.482;10.006;2023-06-14T09:20:07;26.70;55.40
5792;DHT22;2922;53.482;10.006;2023-06-14T09:22:39;26.90;54.80
5792;DHT22;2922;53.482;10.006;2023-06-14T09:25:05;27.30;52.80
5792;DHT22;2922;53.482;10.006;2023-06-14T09:27:32;27.20;51.90
5792;DHT22;2922;53.482;10.006;2023-06-14T09:29:57;27.10;52.40
5792;DHT22;2922;53.482;10.006;2023-06-14T09:32:23;26.90;51.90
5792;DHT22;2922;53.482;10.006;2023-06-14T09:34:50;26.80;50.30
5792;DHT22;2922;53.482;10.006;2023-06-14T09:37:31;26.70;50.00
5792;DHT22;2922;53.482;10.006;2023-06-14T09:39:58;26.40;49.30
5792;DHT22;2922;53.482;10.006;2023-06-14T09:42:23;26.30;49.30
5792;DHT22;2922;53.482;10.006;2023-06-14T09:44:52;26.40;50.70
5792;DHT22;2922;53.482;10.006;2023-06-14T09:47:19;26.80;52.50
5792;DHT22;2922;53.482;10.006;2023-06-14T09:49:45;27.20;51.00
5792;DHT22;2922;53.482;10.006;2023-06-14T09:52:16;27.50;51.20
5792;DHT22;2922;53.482;10.006;2023-06-14T09:54:42;27.60;47.90
5792;DHT22;2922;53.482;10.006;2023-06-14T09:57:12;27.80;49.90
5792;DHT22;2922;53.482;10.006;2023-06-14T09:59:43;27.70;46.60
5792;DHT22;2922;53.482;10.006;2023-06-14T10:02:30;27.20;46.80
5792;DHT22;2922;53.482;10.006;2023-06-14T10:05:05;27.30;47.90
5792;DHT22;2922;53.482;10.006;2023-06-14T10:07:53;27.30;47.70
5792;DHT22;2922;53.482;10.006;2023-06-14T10:10:21;27.70;47.90
5792;DHT22;2922;53.482;10.006;2023-06-14T10:12:47;28.00;46.60
5792;DHT22;2922;53.482;10.006;2023-06-14T10:15:35;28.40;46.60
5792;DHT22;2922;53.482;10.006;2023-06-14T10:18:14;27.90;44.70
5792;DHT22;2922;53.482;10.006;2023-06-14T10:23:23;28.40;45.50
5792;DHT22;2922;53.482;10.006;2023-06-14T10:25:50;28.60;44.50
5792;DHT22;2922;53.482;10.006;2023-06-14T10:28:17;28.60;45.60
5792;DHT22;2922;53.482;10.006;2023-06-14T10:31:02;28.60;44.60
5792;DHT22;2922;53.482;10.006;2023-06-14T10:33:32;28.20;42.80
5792;DHT22;2922;53.482;10.006;2023-06-14T10:39:07;28.20;42.90
5792;DHT22;2922;53.482;10.006;2023-06-14T10:41:38;28.40;44.80
5792;DHT22;2922;53.482;10.006;2023-06-14T10:46:58;29.20;44.00
5792;DHT22;2922;53.482;10.006;2023-06-14T10:52:12;29.60;41.20
5792;DHT22;2922;53.482;10.006;2023-06-14T10:57:51;29.90;39.90
5792;DHT22;2922;53.482;10.006;2023-06-14T11:00:19;30.20;39.10
5792;DHT22;2922;53.482;10.006;2023-06-14T11:05:25;29.70;38.80
5792;DHT22;2922;53.482;10.006;2023-06-14T11:08:19;29.60;39.80
5792;DHT22;2922;53.482;10.006;2023-06-14T11:10:50;29.10;39.60
5792;DHT22;2922;53.482;10.006;2023-06-14T11:13:16;28.90;39.90
5792;DHT22;2922;53.482;10.006;2023-06-14T11:15:47;28.90;39.70
5792;DHT22;2922;53.482;10.006;2023-06-14T11:18:13;28.90;39.10
5792;DHT22;2922;53.482;10.006;2023-06-14T11:20:39;28.90;39.30
5792;DHT22;2922;53.482;10.006;2023-06-14T11:23:05;28.70;39.50
5792;DHT22;2922;53.482;10.006;2023-06-14T11:25:31;28.20;40.50
5792;DHT22;2922;53.482;10.006;2023-06-14T11:27:57;27.80;40.30
5792;DHT22;2922;53.482;10.006;2023-06-14T11:30:24;27.50;41.70
5792;DHT22;2922;53.482;10.006;2023-06-14T11:32:52;27.30;41.30
5792;DHT22;2922;53.482;10.006;2023-06-14T11:35:19;27.20;41.60
5792;DHT22;2922;53.482;10.006;2023-06-14T11:37:45;27.20;43.20
5792;DHT22;2922;53.482;10.006;2023-06-14T11:40:11;27.80;43.40
5792;DHT22;2922;53.482;10.006;2023-06-14T11:42:39;28.40;42.30
5792;DHT22;2922;53.482;10.006;2023-06-14T11:45:09;28.90;40.90
5792;DHT22;2922;53.482;10.006;2023-06-14T11:47:36;29.40;41.10
5792;DHT22;2922;53.482;10.006;2023-06-14T11:50:03;29.20;39.10
5792;DHT22;2922;53.482;10.006;2023-06-14T11:52:29;28.40;37.90
5792;DHT22;2922;53.482;10.006;2023-06-14T11:54:57;28.10;39.40
5792;DHT22;2922;53.482;10.006;2023-06-14T11:57:23;28.00;39.10
5792;DHT22;2922;53.482;10.006;2023-06-14T11:59:49;27.80;41.00
5792;DHT22;2922;53.482;10.006;2023-06-14T12:02:16;27.70;40.70
5792;DHT22;2922;53.482;10.006;2023-06-14T12:04:42;28.20;41.40
5792;DHT22;2922;53.482;10.006;2023-06-14T12:07:12;28.70;39.80
5792;DHT22;2922;53.482;10.006;2023-06-14T12:09:39;28.50;38.80
5792;DHT22;2922;53.482;10.006;2023-06-14T12:12:05;28.50;39.90
5792;DHT22;2922;53.482;10.006;2023-06-14T12:14:32;28.60;40.00
5792;DHT22;2922;53.482;10.006;2023-06-14T12:17:05;28.60;40.20
5792;DHT22;2922;53.482;10.006;2023-06-14T12:19:32;28.60;39.50
5792;DHT22;2922;53.482;10.006;2023-06-14T12:21:59;28.50;41.00
5792;DHT22;2922;53.482;10.006;2023-06-14T12:24:30;28.70;40.40
5792;DHT22;2922;53.482;10.006;2023-06-14T12:27:00;29.30;40.10
5792;DHT22;2922;53.482;10.006;2023-06-14T12:29:28;29.70;38.10
5792;DHT22;2922;53.482;10.006;2023-06-14T12:31:54;29.80;38.00
5792;DHT22;2922;53.482;10.006;2023-06-14T12:34:25;29.80;37.80
5792;DHT22;2922;53.482;10.006;2023-06-14T12:36:55;29.40;38.30
5792;DHT22;2922;53.482;10.006;2023-06-14T12:39:21;29.60;40.00
5792;DHT22;2922;53.482;10.006;2023-06-14T12:41:47;29.60;39.00
5792;DHT22;2922;53.482;10.006;2023-06-14T12:44:14;29.60;39.30
5792;DHT22;2922;53.482;10.006;2023-06-14T12:46:43;29.60;36.50
5792;DHT22;2922;53.482;10.006;2023-06-14T12:49:10;29.60;36.00
5792;DHT22;2922;53.482;10.006;2023-06-14T12:51:37;29.30;34.60
5792;DHT22;2922;53.482;10.006;2023-06-14T12:54:03;29.60;36.30
5792;DHT22;2922;53.482;10.006;2023-06-14T12:56:28;29.90;37.00
5792;DHT22;2922;53.482;10.006;2023-06-14T12:58:54;30.50;37.90
5792;DHT22;2922;53.482;10.006;2023-06-14T13:01:20;30.60;35.40
5792;DHT22;2922;53.482;10.006;2023-06-14T13:03:48;30.20;33.50
5792;DHT22;2922;53.482;10.006;2023-06-14T13:06:16;29.50;35.60
5792;DHT22;2922;53.482;10.006;2023-06-14T13:08:41;29.10;36.60
5792;DHT22;2922;53.482;10.006;2023-06-14T13:11:07;28.90;37.50
5792;DHT22;2922;53.482;10.006;2023-06-14T13:13:32;28.70;37.30
5792;DHT22;2922;53.482;10.006;2023-06-14T13:15:58;28.60;37.80
5792;DHT22;2922;53.482;10.006;2023-06-14T13:18:23;28.80;37.40
5792;DHT22;2922;53.482;10.006;2023-06-14T13:20:49;29.10;36.70
5792;DHT22;2922;53.482;10.006;2023-06-14T13:23:15;29.70;37.40
5792;DHT22;2922;53.482;10.006;2023-06-14T13:25:41;30.30;36.10
5792;DHT22;2922;53.482;10.006;2023-06-14T13:28:07;30.60;33.90
5792;DHT22;2922;53.482;10.006;2023-06-14T13:30:33;30.30;34.30
5792;DHT22;2922;53.482;10.006;2023-06-14T13:33:00;30.00;35.80
5792;DHT22;2922;53.482;10.006;2023-06-14T13:35:25;29.70;36.50
5792;DHT22;2922;53.482;10.006;2023-06-14T13:37:51;29.50;36.90
5792;DHT22;2922;53.482;10.006;2023-06-14T13:40:17;29.20;36.60
5792;DHT22;2922;53.482;10.006;2023-06-14T13:42:43;28.80;36.50
5792;DHT22;2922;53.482;10.006;2023-06-14T13:45:11;28.40;36.70
5792;DHT22;2922;53.482;10.006;2023-06-14T13:47:37;28.10;37.00
5792;DHT22;2922;53.482;10.006;2023-06-14T13:50:03;28.20;37.10
5792;DHT22;2922;53.482;10.006;2023-06-14T13:52:29;28.70;37.90
5792;DHT22;2922;53.482;10.006;2023-06-14T13:54:55;29.10;37.00
5792;DHT22;2922;53.482;10.006;2023-06-14T13:57:20;29.30;37.20
5792;DHT22;2922;53.482;10.006;2023-06-14T13:59:46;29.40;37.10
5792;DHT22;2922;53.482;10.006;2023-06-14T14:02:15;29.50;35.80
5792;DHT22;2922;53.482;10.006;2023-06-14T14:04:41;29.70;36.80
5792;DHT22;2922;53.482;10.006;2023-06-14T14:07:07;29.80;35.70
5792;DHT22;2922;53.482;10.006;2023-06-14T14:09:33;30.00;35.90
5792;DHT22;2922;53.482;10.006;2023-06-14T14:12:00;29.90;35.30
5792;DHT22;2922;53.482;10.006;2023-06-14T14:14:26;29.40;35.20
5792;DHT22;2922;53.482;10.006;2023-06-14T14:16:52;29.10;35.10
5792;DHT22;2922;53.482;10.006;2023-06-14T14:19:20;29.40;36.10
5792;DHT22;2922;53.482;10.006;2023-06-14T14:21:47;29.60;35.50
5792;DHT22;2922;53.482;10.006;2023-06-14T14:24:13;29.60;35.10
5792;DHT22;2922;53.482;10.006;2023-06-14T14:26:39;29.70;36.10
5792;DHT22;2922;53.482;10.006;2023-06-14T14:29:04;29.70;34.80
5792;DHT22;2922;53.482;10.006;2023-06-14T14:31:30;29.90;34.30
5792;DHT22;2922;53.482;10.006;2023-06-14T14:33:55;29.90;34.20
5792;DHT22;2922;53.482;10.006;2023-06-14T14:36:21;29.70;33.00
5792;DHT22;2922;53.482;10.006;2023-06-14T14:38:46;29.60;34.80
5792;DHT22;2922;53.482;10.006;2023-06-14T14:41:13;29.70;35.00
5792;DHT22;2922;53.482;10.006;2023-06-14T14:43:38;29.80;35.00
5792;DHT22;2922;53.482;10.006;2023-06-14T14:46:04;29.90;36.40
5792;DHT22;2922;53.482;10.006;2023-06-14T14:48:30;29.60;33.90
5792;DHT22;2922;53.482;10.006;2023-06-14T14:50:55;29.70;35.10
5792;DHT22;2922;53.482;10.006;2023-06-14T14:53:21;29.60;35.00
5792;DHT22;2922;53.482;10.006;2023-06-14T14:55:47;29.60;35.30
5792;DHT22;2922;53.482;10.006;2023-06-14T14:58:13;29.80;34.80
5792;DHT22;2922;53.482;10.006;2023-06-14T15:00:42;29.80;34.10
5792;DHT22;2922;53.482;10.006;2023-06-14T15:03:08;29.60;34.60
5792;DHT22;2922;53.482;10.006;2023-06-14T15:05:33;29.50;34.20
5792;DHT22;2922;53.482;10.006;2023-06-14T15:07:59;29.60;35.10
5792;DHT22;2922;53.482;10.006;2023-06-14T15:10:24;29.40;34.40
5792;DHT22;2922;53.482;10.006;2023-06-14T15:12:50;29.30;34.10
5792;DHT22;2922;53.482;10.006;2023-06-14T15:15:15;29.00;32.40
5792;DHT22;2922;53.482;10.006;2023-06-14T15:17:41;29.20;34.80
5792;DHT22;2922;53.482;10.006;2023-06-14T15:20:07;29.50;34.70
5792;DHT22;2922;53.482;10.006;2023-06-14T15:22:33;29.80;35.40
5792;DHT22;2922;53.482;10.006;2023-06-14T15:24:58;29.80;34.60
5792;DHT22;2922;53.482;10.006;2023-06-14T15:27:24;29.90;34.50
5792;DHT22;2922;53.482;10.006;2023-06-14T15:29:50;30.00;35.60
5792;DHT22;2922;53.482;10.006;2023-06-14T15:32:15;30.20;35.10
5792;DHT22;2922;53.482;10.006;2023-06-14T15:34:41;29.80;32.80
5792;DHT22;2922;53.482;10.006;2023-06-14T15:37:07;29.50;33.00
5792;DHT22;2922;53.482;10.006;2023-06-14T15:39:33;29.10;33.40
5792;DHT22;2922;53.482;10.006;2023-06-14T15:41:59;28.80;33.70
5792;DHT22;2922;53.482;10.006;2023-06-14T15:44:25;28.90;34.40
5792;DHT22;2922;53.482;10.006;2023-06-14T15:46:51;28.90;33.60
5792;DHT22;2922;53.482;10.006;2023-06-14T15:49:16;28.90;34.50
5792;DHT22;2922;53.482;10.006;2023-06-14T15:51:42;29.10;35.30
5792;DHT22;2922;53.482;10.006;2023-06-14T15:54:07;29.20;34.20
5792;DHT22;2922;53.482;10.006;2023-06-14T15:56:33;29.50;35.00
5792;DHT22;2922;53.482;10.006;2023-06-14T15:58:59;29.40;33.60
5792;DHT22;2922;53.482;10.006;2023-06-14T16:01:26;29.30;33.50
5792;DHT22;2922;53.482;10.006;2023-06-14T16:03:52;29.00;33.70